« Back
NWS Peachtree City, Ga » Text Product » AHN Terminal Aerodrome Forecast


Printer-friendly Version
Current Version              Previous Versions:   1  2  3  4  5  6  7  8  9  

Terminal Aerodrome Forecast

447
FTUS42 KFFC 012300
TAFAHN
TAF
KAHN 012324Z 0200/0224 VRB03KT P6SM SKC
     FM021000 VRB03KT 4SM BR SCT030
     FM021300 17003KT P6SM SCT030
     FM021500 17004KT P6SM SCT045=

USA.gov is the U.S. government's official web portal to all federal, state and local government web resources and services.